Time;durP1;ratioP1;P1;durP2;ratioP2;P2;SDS_P1;SDS_P2;PMS_P1;PMS_P2;Temp;Humidity;BMP_temperature;BMP_pressure;BME280_temperature;BME280_humidity;BME280_pressure;Samples;Min_cycle;Max_cycle;Signal;HPM_P1;HPM_P2
2023/12/30 00:00:17;;;;;;;12.13;3.90;;;;;1.00;96751.00;;;;5029202;28;20428;-68
2023/12/30 00:03:06;;;;;;;10.90;3.40;;;;;1.10;96754.00;;;;5028506;28;20440;-69
2023/12/30 00:05:56;;;;;;;11.57;3.77;;;;;1.50;96759.00;;;;5032563;28;20427;-68
2023/12/30 00:08:45;;;;;;;10.43;3.30;;;;;1.60;96765.00;;;;5030991;28;20454;-69
2023/12/30 00:11:34;;;;;;;11.27;3.60;;;;;1.50;96778.00;;;;5025400;28;20464;-69
2023/12/30 00:14:23;;;;;;;11.93;3.77;;;;;1.20;96761.00;;;;5029627;28;20443;-67
2023/12/30 00:17:13;;;;;;;10.33;3.40;;;;;1.50;96758.00;;;;5020252;28;20430;-69
2023/12/30 00:20:03;;;;;;;13.10;4.10;;;;;1.50;96767.00;;;;5025579;28;20420;-70
2023/12/30 00:22:52;;;;;;;7.37;2.53;;;;;2.00;96766.00;;;;5033832;28;20887;-70
2023/12/30 00:25:41;;;;;;;14.43;4.40;;;;;1.90;96763.00;;;;5034532;28;20430;-68
2023/12/30 00:28:31;;;;;;;18.23;5.43;;;;;1.60;96765.00;;;;5030393;28;20452;-69
2023/12/30 00:31:24;;;;;;;13.30;4.00;;;;;1.30;96762.00;;;;5033466;28;20489;-71
2023/12/30 00:34:14;;;;;;;12.57;4.00;;;;;0.60;96759.00;;;;5027294;28;20425;-71
2023/12/30 00:37:04;;;;;;;11.13;3.60;;;;;0.40;96756.00;;;;5026710;28;20844;-67
2023/12/30 00:39:53;;;;;;;7.73;2.83;;;;;0.10;96752.00;;;;5028216;28;20423;-67
2023/12/30 00:42:42;;;;;;;16.43;4.87;;;;;0.50;96759.00;;;;5027829;28;20432;-68
2023/12/30 00:45:32;;;;;;;18.17;5.40;;;;;1.10;96752.00;;;;5018476;28;20425;-70
2023/12/30 00:48:21;;;;;;;12.00;3.63;;;;;0.90;96759.00;;;;5027477;28;21149;-71
2023/12/30 00:51:11;;;;;;;14.07;4.33;;;;;0.60;96750.00;;;;5025464;28;20494;-72
2023/12/30 00:54:01;;;;;;;13.87;4.10;;;;;0.90;96763.00;;;;5026051;28;20440;-71
2023/12/30 00:56:50;;;;;;;11.47;3.77;;;;;0.40;96760.00;;;;5020493;28;20981;-72
2023/12/30 00:59:39;;;;;;;20.63;6.13;;;;;0.30;96761.00;;;;5017456;28;20456;-72
2023/12/30 01:02:28;;;;;;;22.07;6.37;;;;;0.30;96762.00;;;;5020289;28;20425;-69
2023/12/30 01:05:17;;;;;;;8.33;2.73;;;;;0.90;96776.00;;;;5030052;28;20423;-70
2023/12/30 01:08:08;;;;;;;10.40;3.47;;;;;1.30;96765.00;;;;5031642;28;20451;-70
2023/12/30 01:10:57;;;;;;;10.80;3.50;;;;;1.40;96775.00;;;;5035035;28;20817;-70
2023/12/30 01:13:46;;;;;;;18.33;5.40;;;;;1.70;96772.00;;;;5035250;28;20424;-70
2023/12/30 01:16:36;;;;;;;19.30;5.53;;;;;1.60;96792.00;;;;5034759;28;20896;-71
2023/12/30 01:19:26;;;;;;;12.63;4.03;;;;;1.10;96783.00;;;;5034752;28;20455;-70
2023/12/30 01:22:15;;;;;;;18.10;5.43;;;;;0.40;96783.00;;;;5033576;28;20430;-72
2023/12/30 01:25:08;;;;;;;8.73;2.87;;;;;-0.10;96789.00;;;;5031836;28;20438;-73
2023/12/30 01:27:58;;;;;;;9.67;3.10;;;;;0.30;96790.00;;;;5036244;28;20471;-72
2023/12/30 01:30:47;;;;;;;21.60;6.13;;;;;0.30;96787.00;;;;5029331;28;20420;-69
2023/12/30 01:33:36;;;;;;;29.07;8.27;;;;;0.90;96795.00;;;;5033182;28;20420;-72
2023/12/30 01:36:25;;;;;;;20.73;6.10;;;;;1.00;96790.00;;;;5038273;28;20436;-70
2023/12/30 01:39:15;;;;;;;13.57;4.17;;;;;1.40;96798.00;;;;5029326;28;20902;-72
2023/12/30 01:42:05;;;;;;;14.17;4.33;;;;;1.60;96812.00;;;;5026209;28;20420;-71
2023/12/30 01:44:55;;;;;;;11.67;3.70;;;;;1.70;96814.00;;;;5023238;28;20440;-70
2023/12/30 01:47:44;;;;;;;18.37;5.30;;;;;1.70;96804.00;;;;5031158;28;20432;-70
2023/12/30 01:50:33;;;;;;;12.77;3.97;;;;;1.50;96803.00;;;;5030595;28;20436;-70
2023/12/30 01:53:23;;;;;;;7.27;2.60;;;;;1.70;96815.00;;;;5029540;28;20468;-69
2023/12/30 01:56:16;;;;;;;6.93;2.40;;;;;0.50;96806.00;;;;5031873;28;20977;-71
2023/12/30 01:59:07;;;;;;;9.30;3.17;;;;;-0.10;96799.00;;;;5034581;28;20451;-71
2023/12/30 02:01:57;;;;;;;6.40;2.33;;;;;0.30;96803.00;;;;5031777;28;20420;-71
2023/12/30 02:04:47;;;;;;;14.13;4.17;;;;;0.70;96803.00;;;;5025285;28;20436;-71
2023/12/30 02:07:36;;;;;;;29.70;8.33;;;;;0.40;96805.00;;;;5030244;28;20460;-72
2023/12/30 02:10:25;;;;;;;17.80;5.17;;;;;0.50;96793.00;;;;5029147;28;20425;-71
2023/12/30 02:13:14;;;;;;;11.90;3.70;;;;;0.40;96789.00;;;;5031092;28;20499;-70
2023/12/30 02:16:05;;;;;;;9.37;3.03;;;;;0.40;96793.00;;;;5034656;28;20431;-73
2023/12/30 02:18:54;;;;;;;12.43;3.90;;;;;0.50;96784.00;;;;5034246;28;20455;-71
2023/12/30 02:21:43;;;;;;;10.13;3.47;;;;;0.70;96775.00;;;;5032868;28;20416;-71
2023/12/30 02:24:34;;;;;;;18.33;5.40;;;;;0.60;96780.00;;;;5027338;28;20440;-68
2023/12/30 02:27:23;;;;;;;12.73;3.97;;;;;0.40;96792.00;;;;5029857;28;20448;-72
2023/12/30 02:30:13;;;;;;;12.73;3.90;;;;;0.40;96789.00;;;;5038612;28;20431;-71
2023/12/30 02:33:02;;;;;;;10.37;3.27;;;;;0.50;96787.00;;;;5024000;28;20818;-69
2023/12/30 02:35:52;;;;;;;12.37;3.73;;;;;0.50;96787.00;;;;5026432;28;20432;-71
2023/12/30 02:38:41;;;;;;;20.13;5.93;;;;;0.70;96778.00;;;;5027595;28;20526;-69
2023/12/30 02:41:31;;;;;;;13.83;4.17;;;;;0.90;96795.00;;;;5028893;28;20811;-69
2023/12/30 02:44:21;;;;;;;10.57;3.33;;;;;0.80;96786.00;;;;5032504;28;20444;-69
2023/12/30 02:47:10;;;;;;;13.73;4.07;;;;;0.70;96784.00;;;;5029801;28;20843;-69
2023/12/30 02:49:59;;;;;;;17.33;5.17;;;;;0.30;96793.00;;;;5018475;28;20447;-68
2023/12/30 02:52:48;;;;;;;15.87;4.70;;;;;0.40;96788.00;;;;5029471;28;20452;-71
2023/12/30 02:55:37;;;;;;;11.73;3.63;;;;;1.40;96809.00;;;;5026929;28;20443;-70
2023/12/30 02:58:28;;;;;;;19.97;5.70;;;;;1.80;96807.00;;;;5026938;28;21018;-71
2023/12/30 03:01:17;;;;;;;11.50;3.60;;;;;1.50;96809.00;;;;5029679;28;20990;-71
2023/12/30 03:04:07;;;;;;;9.83;3.13;;;;;1.10;96808.00;;;;5027467;28;20435;-71
2023/12/30 03:06:56;;;;;;;10.87;3.33;;;;;-0.10;96808.00;;;;5034605;28;20436;-72
2023/12/30 03:09:45;;;;;;;7.37;2.53;;;;;0.20;96807.00;;;;5027339;28;20969;-69
2023/12/30 03:12:34;;;;;;;22.07;6.27;;;;;0.60;96810.00;;;;5026508;28;20471;-70
2023/12/30 03:15:25;;;;;;;11.10;3.40;;;;;0.80;96806.00;;;;5028515;28;20436;-68
2023/12/30 03:18:14;;;;;;;12.20;3.80;;;;;0.90;96820.00;;;;5030153;28;20444;-69
2023/12/30 03:21:03;;;;;;;10.30;3.33;;;;;0.60;96807.00;;;;5025531;28;20424;-71
2023/12/30 03:23:52;;;;;;;8.23;2.70;;;;;0.10;96804.00;;;;5033007;28;20417;-68
2023/12/30 03:26:42;;;;;;;17.23;5.23;;;;;0.30;96806.00;;;;5033138;28;20933;-68
2023/12/30 03:29:31;;;;;;;19.33;5.73;;;;;0.90;96824.00;;;;5022674;28;20835;-69
2023/12/30 03:32:21;;;;;;;10.80;3.37;;;;;1.10;96816.00;;;;5031341;28;20468;-68
2023/12/30 03:35:10;;;;;;;12.93;3.87;;;;;0.60;96814.00;;;;5028773;28;20431;-69
2023/12/30 03:37:59;;;;;;;18.47;5.57;;;;;0.40;96825.00;;;;5027844;28;20457;-69
2023/12/30 03:40:48;;;;;;;23.90;6.80;;;;;0.70;96816.00;;;;5029163;28;20748;-70
2023/12/30 03:43:38;;;;;;;28.87;8.20;;;;;0.80;96812.00;;;;5026235;28;20435;-70
2023/12/30 03:46:27;;;;;;;18.30;5.33;;;;;1.00;96812.00;;;;5029508;28;20974;-70
2023/12/30 03:49:17;;;;;;;9.83;3.03;;;;;0.40;96815.00;;;;5028300;28;20483;-71
2023/12/30 03:52:06;;;;;;;18.13;5.40;;;;;0.10;96808.00;;;;5027499;28;20799;-68
2023/12/30 03:54:56;;;;;;;10.70;3.37;;;;;-0.20;96814.00;;;;5025375;28;20443;-71
2023/12/30 03:57:45;;;;;;;18.53;5.53;;;;;0.10;96807.00;;;;5033326;28;20436;-73
2023/12/30 04:00:34;;;;;;;15.97;4.77;;;;;0.50;96806.00;;;;5030269;28;20992;-71
2023/12/30 04:03:23;;;;;;;9.67;3.20;;;;;0.70;96808.00;;;;5025662;28;20815;-68
2023/12/30 04:06:23;;;;;;;13.73;4.33;;;;;1.00;96826.00;;;;5030871;28;20452;-69
2023/12/30 04:09:12;;;;;;;16.30;4.73;;;;;0.30;96814.00;;;;5032343;28;20455;-73
2023/12/30 04:12:01;;;;;;;12.00;3.90;;;;;0.50;96823.00;;;;5028827;28;20427;-71
2023/12/30 04:14:50;;;;;;;9.77;3.10;;;;;0.00;96811.00;;;;5023517;28;20443;-69
2023/12/30 04:17:39;;;;;;;30.10;8.60;;;;;0.00;96803.00;;;;5032267;28;20444;-70
2023/12/30 04:20:28;;;;;;;15.83;4.80;;;;;0.70;96815.00;;;;5027886;28;20431;-70
2023/12/30 04:23:19;;;;;;;12.23;3.87;;;;;1.20;96831.00;;;;5029482;28;20808;-70
2023/12/30 04:26:08;;;;;;;13.03;3.93;;;;;0.50;96820.00;;;;5025284;28;20424;-73
2023/12/30 04:28:57;;;;;;;10.03;3.20;;;;;-0.20;96813.00;;;;5028319;28;20447;-69
2023/12/30 04:31:46;;;;;;;10.90;3.40;;;;;0.30;96820.00;;;;5040135;28;20427;-70
2023/12/30 04:34:35;;;;;;;19.23;5.73;;;;;0.40;96822.00;;;;5028944;28;20472;-70
2023/12/30 04:37:24;;;;;;;11.63;3.60;;;;;0.60;96822.00;;;;5030757;28;20796;-70
2023/12/30 04:40:15;;;;;;;10.87;3.47;;;;;0.90;96819.00;;;;5037715;28;20432;-70
2023/12/30 04:43:04;;;;;;;9.17;3.10;;;;;0.70;96811.00;;;;5032470;28;20429;-69
2023/12/30 04:45:54;;;;;;;14.10;4.47;;;;;0.70;96818.00;;;;5025702;28;20427;-71
2023/12/30 04:48:43;;;;;;;17.37;5.23;;;;;0.20;96829.00;;;;5028288;28;20482;-73
2023/12/30 04:51:32;;;;;;;10.97;3.50;;;;;0.20;96828.00;;;;5030198;28;20424;-71
2023/12/30 04:54:21;;;;;;;11.13;3.67;;;;;0.20;96835.00;;;;5034662;28;20459;-72
2023/12/30 04:57:12;;;;;;;14.53;4.50;;;;;0.60;96848.00;;;;5036753;28;20435;-71
2023/12/30 05:00:01;;;;;;;11.10;3.43;;;;;0.70;96848.00;;;;5026180;28;20936;-72
2023/12/30 05:02:50;;;;;;;10.17;3.40;;;;;1.00;96855.00;;;;5029578;28;20432;-72
2023/12/30 05:05:39;;;;;;;21.03;6.03;;;;;1.00;96845.00;;;;5029979;28;20423;-71
2023/12/30 05:08:28;;;;;;;15.87;4.93;;;;;1.10;96854.00;;;;5033156;28;20830;-72
2023/12/30 05:11:17;;;;;;;10.40;3.37;;;;;0.70;96859.00;;;;5031672;28;20443;-72
2023/12/30 05:14:08;;;;;;;10.23;3.40;;;;;1.20;96861.00;;;;5032587;28;20495;-72
2023/12/30 05:16:57;;;;;;;13.97;4.40;;;;;0.60;96854.00;;;;5025996;28;20455;-73
2023/12/30 05:19:46;;;;;;;11.87;3.87;;;;;1.00;96855.00;;;;5033040;28;20428;-70
2023/12/30 05:22:35;;;;;;;21.90;6.47;;;;;1.10;96871.00;;;;5041023;28;20428;-71
2023/12/30 05:25:24;;;;;;;9.60;3.17;;;;;0.90;96872.00;;;;5032446;28;20423;-71
2023/12/30 05:28:13;;;;;;;8.83;3.00;;;;;0.70;96871.00;;;;5031935;28;21015;-71
2023/12/30 05:31:04;;;;;;;10.43;3.40;;;;;0.70;96873.00;;;;5027032;28;20440;-72
2023/12/30 05:33:54;;;;;;;7.97;2.70;;;;;0.40;96867.00;;;;5032023;28;20460;-71
2023/12/30 05:36:43;;;;;;;19.47;5.87;;;;;0.40;96878.00;;;;5030850;28;20432;-71
2023/12/30 05:39:33;;;;;;;22.23;6.47;;;;;0.80;96880.00;;;;5028799;28;20451;-73
2023/12/30 05:42:22;;;;;;;14.83;4.60;;;;;0.80;96877.00;;;;5028316;28;21128;-71
2023/12/30 05:45:11;;;;;;;12.77;4.20;;;;;0.70;96883.00;;;;5030484;28;20941;-71
2023/12/30 05:48:02;;;;;;;8.80;2.90;;;;;1.30;96883.00;;;;5030541;28;20832;-71
2023/12/30 05:50:51;;;;;;;24.57;7.33;;;;;0.90;96891.00;;;;5029701;28;20544;-71
2023/12/30 05:53:41;;;;;;;30.43;8.53;;;;;-0.10;96886.00;;;;5030979;28;20464;-69
2023/12/30 05:56:30;;;;;;;14.47;4.37;;;;;0.00;96896.00;;;;5030188;28;20416;-71
2023/12/30 05:59:19;;;;;;;12.70;3.90;;;;;-0.40;96881.00;;;;5028586;28;20448;-71
2023/12/30 06:02:08;;;;;;;18.90;5.57;;;;;-0.10;96896.00;;;;5029695;28;20437;-72
2023/12/30 06:04:59;;;;;;;11.00;3.40;;;;;-0.20;96902.00;;;;5026508;28;20483;-73
2023/12/30 06:07:48;;;;;;;11.30;3.67;;;;;0.30;96903.00;;;;5028460;28;20452;-70
2023/12/30 06:10:37;;;;;;;29.03;8.57;;;;;0.90;96912.00;;;;5028558;28;20424;-71
2023/12/30 06:13:27;;;;;;;12.03;3.63;;;;;0.80;96921.00;;;;5031204;28;20454;-73
2023/12/30 06:16:16;;;;;;;10.37;3.40;;;;;0.30;96918.00;;;;5030106;28;20432;-73
2023/12/30 06:19:05;;;;;;;12.63;4.03;;;;;-0.10;96916.00;;;;5027907;28;21078;-73
2023/12/30 06:21:56;;;;;;;11.20;3.57;;;;;0.60;96920.00;;;;5038864;28;20963;-70
2023/12/30 06:24:45;;;;;;;12.53;3.87;;;;;0.50;96930.00;;;;5038720;28;21129;-72
2023/12/30 06:27:34;;;;;;;21.53;6.10;;;;;0.00;96932.00;;;;5030388;28;20429;-72
2023/12/30 06:30:23;;;;;;;13.97;4.27;;;;;-0.10;96923.00;;;;5033649;28;21032;-72
2023/12/30 06:33:13;;;;;;;10.63;3.53;;;;;0.40;96929.00;;;;5028156;28;20436;-72
2023/12/30 06:36:02;;;;;;;9.83;3.20;;;;;0.20;96919.00;;;;5028815;28;20428;-72
2023/12/30 06:38:52;;;;;;;13.40;4.07;;;;;0.20;96933.00;;;;5023400;28;20455;-71
2023/12/30 06:41:42;;;;;;;21.47;6.30;;;;;0.70;96937.00;;;;5024955;28;20451;-72
2023/12/30 06:44:31;;;;;;;14.73;4.60;;;;;0.70;96947.00;;;;5028044;28;20435;-71
2023/12/30 06:47:20;;;;;;;10.57;3.37;;;;;0.80;96947.00;;;;5028696;28;20971;-72
2023/12/30 06:50:12;;;;;;;13.23;4.10;;;;;1.10;96940.00;;;;5031682;28;20441;-71
2023/12/30 06:53:01;;;;;;;11.63;3.57;;;;;0.60;96954.00;;;;5026160;28;20439;-70
2023/12/30 06:55:51;;;;;;;16.60;5.10;;;;;1.10;96952.00;;;;5029850;28;20471;-73
2023/12/30 06:58:41;;;;;;;20.17;6.07;;;;;1.00;96949.00;;;;5025913;28;20459;-72
2023/12/30 07:01:31;;;;;;;16.23;4.90;;;;;0.70;96937.00;;;;5025160;28;20440;-69
2023/12/30 07:04:21;;;;;;;11.90;3.77;;;;;0.80;96951.00;;;;5025216;28;20455;-72
2023/12/30 07:07:10;;;;;;;12.80;4.07;;;;;0.60;96957.00;;;;5028241;28;20971;-70
2023/12/30 07:09:59;;;;;;;12.53;3.83;;;;;0.90;96950.00;;;;5023838;28;20977;-72
2023/12/30 07:12:50;;;;;;;8.67;2.87;;;;;1.20;96952.00;;;;5026509;28;20436;-71
2023/12/30 07:15:39;;;;;;;16.43;5.07;;;;;1.30;96962.00;;;;5027117;28;20464;-71
2023/12/30 07:18:28;;;;;;;10.13;3.27;;;;;0.40;96954.00;;;;5024290;28;20452;-72
2023/12/30 07:21:18;;;;;;;12.30;3.97;;;;;0.70;96955.00;;;;5032873;28;20421;-70
2023/12/30 07:24:08;;;;;;;10.73;3.57;;;;;1.30;96965.00;;;;5032673;28;20490;-73
2023/12/30 07:26:58;;;;;;;9.53;3.00;;;;;0.60;96947.00;;;;5032012;28;20994;-72
2023/12/30 07:29:48;;;;;;;12.20;3.77;;;;;1.00;96955.00;;;;5019044;28;20440;-72
2023/12/30 07:32:37;;;;;;;17.20;5.20;;;;;0.90;96961.00;;;;5024300;28;20539;-72
2023/12/30 07:35:27;;;;;;;10.77;3.43;;;;;0.90;96959.00;;;;5038181;28;20835;-72
2023/12/30 07:38:16;;;;;;;15.00;4.50;;;;;0.90;96966.00;;;;5029839;28;20455;-72
2023/12/30 07:41:06;;;;;;;9.90;3.20;;;;;0.70;96971.00;;;;5029327;28;20450;-71
2023/12/30 07:43:55;;;;;;;17.03;5.07;;;;;1.00;96979.00;;;;5026745;28;20452;-71
2023/12/30 07:46:46;;;;;;;18.13;5.43;;;;;0.60;96975.00;;;;5027366;28;20429;-73
2023/12/30 07:49:35;;;;;;;19.37;5.63;;;;;1.00;96968.00;;;;5037669;28;20444;-71
2023/12/30 07:52:25;;;;;;;14.63;4.30;;;;;1.30;96968.00;;;;5022752;28;20433;-72
2023/12/30 07:55:14;;;;;;;13.27;4.10;;;;;1.40;96974.00;;;;5021621;28;20467;-72
2023/12/30 07:58:03;;;;;;;12.97;3.93;;;;;1.00;96968.00;;;;5030497;28;20921;-71
2023/12/30 08:00:52;;;;;;;10.13;3.07;;;;;1.60;96966.00;;;;5032227;28;20884;-71
2023/12/30 08:03:43;;;;;;;28.47;8.13;;;;;1.80;96963.00;;;;5025108;28;20438;-72
2023/12/30 08:06:32;;;;;;;17.37;5.13;;;;;1.90;96962.00;;;;5015876;28;20455;-72
2023/12/30 08:09:22;;;;;;;12.97;4.03;;;;;1.30;96954.00;;;;5019148;28;20490;-72
2023/12/30 08:12:11;;;;;;;16.87;5.10;;;;;1.30;96950.00;;;;5022988;28;20436;-70
2023/12/30 08:15:00;;;;;;;15.63;4.77;;;;;1.50;96966.00;;;;5027795;28;20468;-71
2023/12/30 08:17:49;;;;;;;10.83;3.43;;;;;1.60;96967.00;;;;5023085;28;20448;-72
2023/12/30 08:20:40;;;;;;;29.60;8.37;;;;;1.50;96978.00;;;;5025257;28;20432;-74
2023/12/30 08:23:29;;;;;;;14.87;4.50;;;;;2.50;96968.00;;;;5014731;28;20423;-71
2023/12/30 08:26:18;;;;;;;11.33;3.67;;;;;2.40;96986.00;;;;5022617;28;20440;-71
2023/12/30 08:29:09;;;;;;;13.50;4.20;;;;;1.60;96978.00;;;;5026307;28;20860;-72
2023/12/30 08:31:58;;;;;;;9.50;3.07;;;;;1.70;96965.00;;;;5024600;28;20429;-71
2023/12/30 08:34:47;;;;;;;12.50;3.93;;;;;2.20;96979.00;;;;5023718;28;20475;-70
2023/12/30 08:37:38;;;;;;;24.57;7.07;;;;;1.80;96982.00;;;;5021165;28;20669;-71
2023/12/30 08:40:27;;;;;;;19.93;5.90;;;;;1.80;96972.00;;;;5019122;28;20444;-73
2023/12/30 08:43:16;;;;;;;15.40;4.53;;;;;2.40;96989.00;;;;5021589;28;20444;-70
2023/12/30 08:46:05;;;;;;;16.70;5.20;;;;;2.60;97006.00;;;;5018357;28;20440;-70
2023/12/30 08:48:54;;;;;;;10.80;3.50;;;;;2.20;96987.00;;;;5027866;28;20463;-71
2023/12/30 08:51:43;;;;;;;18.67;5.50;;;;;2.50;96993.00;;;;5024543;28;21317;-74
2023/12/30 08:54:34;;;;;;;12.20;3.87;;;;;2.60;97000.00;;;;5024176;28;20440;-71
2023/12/30 08:57:24;;;;;;;11.27;3.60;;;;;2.50;96997.00;;;;5015667;28;20437;-71
2023/12/30 09:00:14;;;;;;;15.90;5.10;;;;;3.30;97002.00;;;;5015139;28;20447;-71
2023/12/30 09:03:03;;;;;;;17.83;5.37;;;;;3.30;96993.00;;;;5020467;28;21206;-72
2023/12/30 09:05:52;;;;;;;15.33;4.93;;;;;3.20;97012.00;;;;5018418;28;20468;-72
2023/12/30 09:08:42;;;;;;;20.10;6.10;;;;;3.30;97013.00;;;;5027101;28;20453;-71
2023/12/30 09:11:37;;;;;;;16.80;5.27;;;;;3.50;97013.00;;;;5023786;28;20440;-73
2023/12/30 09:14:26;;;;;;;11.47;3.67;;;;;3.00;97017.00;;;;5024951;28;20958;-74
2023/12/30 09:17:15;;;;;;;11.47;3.90;;;;;2.90;97011.00;;;;5027540;28;20424;-72
2023/12/30 09:20:05;;;;;;;10.00;3.17;;;;;3.00;97023.00;;;;5023849;28;20974;-74
2023/12/30 09:22:54;;;;;;;11.50;3.63;;;;;3.40;97024.00;;;;5026756;28;20439;-73
2023/12/30 09:25:44;;;;;;;24.60;7.13;;;;;4.60;97031.00;;;;5027635;28;20421;-70
2023/12/30 09:28:34;;;;;;;21.40;6.53;;;;;4.70;97027.00;;;;5030372;28;20451;-73
2023/12/30 09:31:26;;;;;;;13.43;4.37;;;;;4.50;97019.00;;;;5027755;28;20819;-72
2023/12/30 09:34:15;;;;;;;16.57;5.23;;;;;5.10;97039.00;;;;5027909;28;20459;-72
2023/12/30 09:37:09;;;;;;;14.17;4.93;;;;;4.70;97030.00;;;;5029997;28;20476;-72
2023/12/30 09:39:58;;;;;;;8.40;3.07;;;;;4.50;97025.00;;;;5031555;28;20216;-72
2023/12/30 09:42:49;;;;;;;23.47;7.37;;;;;4.20;97016.00;;;;5029491;28;21567;-72
2023/12/30 09:45:41;;;;;;;15.27;4.97;;;;;4.80;97021.00;;;;5026902;28;20264;-72
2023/12/30 09:48:30;;;;;;;12.00;3.60;;;;;4.70;97020.00;;;;5025087;28;20222;-71
2023/12/30 09:51:19;;;;;;;12.37;3.80;;;;;5.40;97016.00;;;;5027417;28;20202;-71
2023/12/30 09:54:10;;;;;;;12.43;3.73;;;;;4.80;97014.00;;;;5022286;28;20822;-72
2023/12/30 09:56:59;;;;;;;10.47;3.13;;;;;4.80;97014.00;;;;5018684;28;20221;-72
2023/12/30 09:59:49;;;;;;;14.93;4.40;;;;;4.80;97009.00;;;;5028012;28;20256;-72
2023/12/30 10:02:40;;;;;;;28.57;8.47;;;;;4.50;97002.00;;;;5026578;28;20216;-72
2023/12/30 10:05:29;;;;;;;19.90;6.10;;;;;4.50;97001.00;;;;5022870;28;20738;-72
2023/12/30 10:08:18;;;;;;;13.67;4.53;;;;;4.00;96996.00;;;;5025727;28;20749;-71
2023/12/30 10:11:09;;;;;;;16.30;5.33;;;;;4.40;96984.00;;;;5025223;28;20209;-70
2023/12/30 10:13:58;;;;;;;10.17;3.33;;;;;4.60;96980.00;;;;5027124;28;20224;-72
2023/12/30 10:16:47;;;;;;;20.60;6.17;;;;;5.50;96986.00;;;;5026679;28;20467;-71
2023/12/30 10:19:39;;;;;;;24.50;7.83;;;;;5.50;96977.00;;;;5026089;28;20225;-71
2023/12/30 10:22:28;;;;;;;12.70;4.33;;;;;5.10;96972.00;;;;5022166;28;20201;-71
2023/12/30 10:25:17;;;;;;;14.40;5.13;;;;;5.40;96972.00;;;;5028684;28;20209;-70
2023/12/30 10:28:07;;;;;;;15.00;5.77;;;;;5.80;96974.00;;;;5027051;28;20237;-71
2023/12/30 10:31:03;;;;;;;12.90;5.03;;;;;6.60;96969.00;;;;5026671;28;20229;-71
2023/12/30 10:33:53;;;;;;;13.13;5.37;;;;;6.70;96970.00;;;;5027580;28;20205;-70
2023/12/30 10:36:44;;;;;;;20.80;6.97;;;;;7.80;96973.00;;;;5026555;28;20251;-71
2023/12/30 10:39:34;;;;;;;19.03;7.73;;;;;8.20;96981.00;;;;5026418;28;20621;-70
2023/12/30 10:42:23;;;;;;;14.53;7.43;;;;;7.70;96976.00;;;;5025359;28;20209;-70
2023/12/30 10:45:12;;;;;;;18.73;9.40;;;;;8.10;96981.00;;;;5030255;28;20208;-70
2023/12/30 10:48:02;;;;;;;16.87;7.50;;;;;7.90;96961.00;;;;5028558;28;20216;-69
2023/12/30 10:50:53;;;;;;;23.33;9.90;;;;;8.40;96967.00;;;;5021899;28;20209;-70
2023/12/30 10:53:47;;;;;;;40.57;15.27;;;;;8.90;96990.00;;;;5033006;28;20209;-70
2023/12/30 10:56:40;;;;;;;27.23;11.40;;;;;9.70;96988.00;;;;5026889;28;20225;-69
2023/12/30 10:59:29;;;;;;;9.97;7.17;;;;;10.20;96985.00;;;;5027713;28;20233;-70
2023/12/30 11:02:19;;;;;;;19.87;8.80;;;;;10.00;96979.00;;;;5029357;28;20210;-71
2023/12/30 11:05:11;;;;;;;14.33;7.47;;;;;10.90;96986.00;;;;5025074;28;20205;-70
2023/12/30 11:08:00;;;;;;;15.10;8.43;;;;;9.80;96973.00;;;;5024482;28;20225;-70
2023/12/30 11:10:51;;;;;;;32.40;12.10;;;;;9.60;96969.00;;;;5030075;28;20208;-70
2023/12/30 11:13:42;;;;;;;39.80;14.50;;;;;9.80;96961.00;;;;5035107;28;20200;-69
2023/12/30 11:16:34;;;;;;;15.60;6.43;;;;;10.70;96957.00;;;;5025698;28;20724;-69
2023/12/30 11:19:28;;;;;;;11.37;7.03;;;;;10.00;96948.00;;;;5031159;28;20240;-70
2023/12/30 11:22:17;;;;;;;19.63;8.90;;;;;10.20;96945.00;;;;5025031;28;20212;-70
2023/12/30 11:25:06;;;;;;;13.73;7.67;;;;;11.40;96955.00;;;;5026061;28;20204;-69
2023/12/30 11:28:16;;;;;;;18.50;12.63;;;;;11.10;96957.00;;;;5032372;28;20220;-68
2023/12/30 11:31:05;;;;;;;12.80;8.67;;;;;10.90;96940.00;;;;5025136;28;20380;-70
2023/12/30 11:33:55;;;;;;;20.10;10.43;;;;;11.00;96938.00;;;;5026196;28;20232;-69
2023/12/30 11:36:45;;;;;;;30.80;11.97;;;;;11.00;96936.00;;;;5029060;28;20240;-69
2023/12/30 11:39:38;;;;;;;17.73;8.83;;;;;10.80;96945.00;;;;5024787;28;20245;-71
2023/12/30 11:42:28;;;;;;;12.50;6.30;;;;;11.50;96926.00;;;;5022277;28;20217;-69
2023/12/30 11:45:20;;;;;;;18.07;8.90;;;;;11.70;96937.00;;;;5025625;28;20689;-69
2023/12/30 11:48:09;;;;;;;21.00;11.73;;;;;12.00;96922.00;;;;5020088;28;20584;-70
2023/12/30 11:50:58;;;;;;;20.40;11.30;;;;;10.70;96919.00;;;;5026490;28;20216;-72
2023/12/30 11:53:47;;;;;;;27.97;11.43;;;;;11.80;96926.00;;;;5024714;28;20801;-69
2023/12/30 11:56:36;;;;;;;15.13;8.90;;;;;11.10;96905.00;;;;5026269;28;20226;-71
2023/12/30 11:59:26;;;;;;;14.30;7.73;;;;;12.20;96902.00;;;;5025690;28;20224;-69
2023/12/30 12:02:18;;;;;;;20.53;10.57;;;;;12.10;96900.00;;;;5026422;28;20251;-69
2023/12/30 12:05:08;;;;;;;16.07;7.80;;;;;12.10;96908.00;;;;5025774;28;20213;-69
2023/12/30 12:07:57;;;;;;;16.53;14.80;;;;;12.80;96896.00;;;;5024847;28;20239;-68
2023/12/30 12:10:46;;;;;;;44.63;28.43;;;;;13.70;96909.00;;;;5022067;28;20213;-70
2023/12/30 12:13:35;;;;;;;49.00;39.87;;;;;12.60;96894.00;;;;5021538;28;20209;-68
2023/12/30 12:16:25;;;;;;;63.33;57.33;;;;;13.00;96893.00;;;;5025762;28;20197;-70
2023/12/30 12:19:17;;;;;;;156.07;140.90;;;;;13.20;96910.00;;;;5032436;28;20708;-69
2023/12/30 12:22:06;;;;;;;151.43;137.00;;;;;13.50;96903.00;;;;5022988;28;20202;-70
2023/12/30 12:24:56;;;;;;;156.53;142.03;;;;;13.60;96899.00;;;;5024971;28;20212;-70
2023/12/30 12:27:45;;;;;;;244.03;178.80;;;;;15.70;96897.00;;;;5035037;28;20300;-69
2023/12/30 12:30:34;;;;;;;167.70;152.20;;;;;16.10;96888.00;;;;5020307;28;20201;-69
2023/12/30 12:33:24;;;;;;;53.40;49.77;;;;;15.20;96884.00;;;;5036443;28;20210;-69
2023/12/30 12:36:15;;;;;;;44.97;41.70;;;;;16.00;96894.00;;;;5027576;28;20692;-69
2023/12/30 12:39:05;;;;;;;43.10;40.47;;;;;16.00;96883.00;;;;5022259;28;20224;-69
2023/12/30 12:41:54;;;;;;;38.57;36.27;;;;;15.80;96895.00;;;;5025121;28;20209;-69
2023/12/30 12:44:44;;;;;;;37.90;34.60;;;;;15.80;96908.00;;;;5034227;28;20201;-69
2023/12/30 12:47:33;;;;;;;32.47;29.57;;;;;15.60;96882.00;;;;5029568;28;20239;-69
2023/12/30 12:50:22;;;;;;;38.63;35.50;;;;;16.20;96883.00;;;;5031887;28;20212;-68
2023/12/30 12:53:13;;;;;;;47.83;45.10;;;;;15.10;96877.00;;;;5028948;28;20208;-69
2023/12/30 12:56:04;;;;;;;37.97;35.80;;;;;13.60;96867.00;;;;5043208;28;20204;-71
2023/12/30 12:58:53;;;;;;;27.87;25.70;;;;;13.50;96863.00;;;;5036341;28;20787;-68
2023/12/30 13:01:42;;;;;;;24.07;17.30;;;;;12.30;96864.00;;;;5031022;28;20575;-70
2023/12/30 13:04:32;;;;;;;17.90;13.07;;;;;11.90;96866.00;;;;5024500;28;20704;-70
2023/12/30 13:07:21;;;;;;;20.03;12.83;;;;;13.10;96871.00;;;;5029928;28;20221;-69
2023/12/30 13:10:36;;;;;;;17.67;12.47;;;;;14.70;96875.00;;;;5031677;28;20200;-68
2023/12/30 13:13:24;;;;;;;18.17;15.07;;;;;13.50;96872.00;;;;5030227;28;20209;-69
2023/12/30 13:16:14;;;;;;;19.30;17.60;;;;;13.10;96874.00;;;;5032065;28;20201;-68
2023/12/30 13:19:03;;;;;;;16.47;14.93;;;;;14.20;96866.00;;;;5027187;28;20222;-68
2023/12/30 13:21:53;;;;;;;23.20;21.77;;;;;14.70;96866.00;;;;5030845;28;20293;-67
2023/12/30 13:24:44;;;;;;;38.67;35.40;;;;;16.20;96870.00;;;;5029204;28;20201;-68
2023/12/30 13:27:35;;;;;;;55.77;51.57;;;;;16.60;96876.00;;;;5036143;28;20547;-68
2023/12/30 13:30:24;;;;;;;75.90;71.23;;;;;16.50;96871.00;;;;5035461;28;20209;-67
2023/12/30 13:33:16;;;;;;;105.00;99.00;;;;;17.00;96876.00;;;;5023547;28;20216;-68
2023/12/30 13:36:11;;;;;;;100.73;95.53;;;;;15.90;96876.00;;;;5023676;28;20721;-68
2023/12/30 13:39:05;;;;;;;101.47;96.00;;;;;14.80;96877.00;;;;5017295;28;20237;-68
2023/12/30 13:41:56;;;;;;;97.00;92.00;;;;;14.10;96867.00;;;;5025062;28;20686;-67
2023/12/30 13:44:47;;;;;;;87.40;81.93;;;;;14.40;96863.00;;;;5028920;28;20212;-68
2023/12/30 13:47:52;;;;;;;84.50;78.63;;;;;13.80;96864.00;;;;5019904;28;20201;-68
2023/12/30 13:50:48;;;;;;;63.70;57.97;;;;;13.80;96866.00;;;;5024230;28;20205;-68
2023/12/30 13:53:38;;;;;;;49.63;45.67;;;;;13.60;96872.00;;;;5043825;28;20259;-68
2023/12/30 13:56:28;;;;;;;54.77;51.63;;;;;12.70;96865.00;;;;5049577;28;20227;-69
2023/12/30 13:59:18;;;;;;;31.83;28.07;;;;;12.10;96863.00;;;;5046074;28;20244;-69
2023/12/30 14:02:10;;;;;;;18.43;10.83;;;;;10.30;96857.00;;;;5046052;28;20282;-70
2023/12/30 14:04:59;;;;;;;9.50;4.43;;;;;10.80;96853.00;;;;5046793;28;20204;-67